DW1477 Weather Reports


time (UTC)temp
C
wind
direction
speed
KPH
gust
KPH
rain 1hr
cm
rain 24hr
cm
rain mn
cm
humidity
%
barometer
mb
20190424081012 11 244 1.6 8.0 0.00 0.00 0.00 60 1008.8
20190424075013 10 254 3.2 11.3 0.00 0.00 0.00 63 1009.1
20190424073012 10 250 4.8 16.1 0.00 0.00 0.00 65 1008.6
20190424064012 7 267 0.0 4.8 0.00 0.00 0.00 74 1007.7
20190424061011 8 268 3.2 8.0 0.00 0.00 0.00 71 1007.2
20190424060011 8 266 1.6 8.0 0.00 0.00 0.00 68 1006.9
20190424053012 8 290 3.2 14.5 0.00 0.00 0.00 67 1006.6
20190424052012 7 268 3.2 14.5 0.00 0.00 0.00 74 1006.6
20190424045012 7 254 4.8 14.5 0.00 0.00 0.00 73 1006.0
20190424044011 7 262 4.8 9.7 0.00 0.00 0.00 74 1005.9
20190424035011 8 276 8.0 16.1 0.00 0.00 0.00 67 1005.7
20190424034011 9 259 8.0 19.3 0.00 0.00 0.00 61 1005.6
20190424033012 9 278 8.0 19.3 0.00 0.00 0.00 61 1005.7
20190424030011 10 280 9.7 22.5 0.00 0.00 0.00 58 1005.3
20190424023012 9 265 11.3 25.7 0.00 0.00 0.00 56 1004.6
20190424013011 9 262 9.7 27.4 0.00 0.00 0.00 57 1005.2
20190424012011 9 294 11.3 32.2 0.00 0.00 0.00 58 1005.4
20190424003011 9 288 8.0 19.3 0.00 0.00 0.00 57 1005.3
20190423234011 8 255 8.0 19.3 0.00 0.00 0.00 58 1005.3
20190423223011 9 295 4.8 19.3 0.00 0.00 0.00 62 1004.8
20190423220013 9 286 9.7 32.2 0.00 0.00 0.00 62 1004.7
20190423213012 10 272 8.0 19.3 0.00 0.00 1.12 61 1004.4
20190423211011 10 278 8.0 16.1 0.00 0.00 1.12 60 1004.3
20190423201011 10 283 4.8 16.1 0.00 0.00 1.12 58 1003.1
20190423194011 10 276 8.0 19.3 0.00 0.00 1.12 59 1002.1
20190423192011 10 278 8.0 19.3 0.00 0.00 1.12 59 1001.6
20190423191010 10 270 8.0 19.3 0.00 0.00 1.12 58 1001.3
20190423182010 10 286 1.6 8.0 0.00 0.00 1.12 79 1000.7
20190423180011 10 286 0.0 3.2 0.00 0.00 1.12 80 1000.5
20190423175011 10 286 0.0 0.0 0.00 0.00 1.12 80 1000.3
20190423171011 10 346 1.6 11.3 0.00 0.00 1.12 77 1000.0
20190423170010 11 273 4.8 14.5 0.00 0.00 1.12 76 999.8
20190423164011 12 271 1.6 9.7 0.00 0.00 1.12 75 999.6
20190423160012 12 254 3.2 14.5 0.00 0.00 1.12 68 999.2
20190423154013 13 262 6.4 24.1 0.00 0.00 1.12 47 998.8
20190423153012 14 229 4.8 24.1 0.00 0.00 1.12 56 998.5
20190423144013 13 258 8.0 19.3 0.00 0.00 1.12 54 998.5
20190423142013 13 267 8.0 19.3 0.00 0.00 1.12 61 998.5
20190423141012 12 250 1.6 9.7 0.00 0.00 1.12 71 998.8
20190423134013 11 264 4.8 11.3 0.00 0.00 1.12 78 998.7
20190423125013 9 242 0.0 8.0 0.00 0.00 1.12 89 998.8
20190423122012 9 242 0.0 4.8 0.05 0.00 1.12 89 999.2
20190423121012 9 242 0.0 9.7 0.05 0.00 1.12 88 999.1
20190423114012 9 249 1.6 14.5 0.05 0.00 1.09 89 999.0
20190423104012 9 277 3.2 11.3 0.33 0.00 1.02 91 999.6
20190423103012 10 253 0.0 4.8 0.18 0.00 0.89 93 998.9
20190423102012 10 253 0.0 4.8 0.08 0.00 0.79 93 998.7
20190423101012 10 253 0.0 4.8 0.13 0.00 0.71 93 998.5
20190423095012 10 253 1.6 4.8 0.23 0.00 0.71 93 998.4
20190423092012 10 253 0.0 4.8 0.36 0.00 0.71 92 998.4
20190423085012 10 246 0.0 4.8 0.30 0.00 0.48 91 998.3
20190423082012 10 225 3.2 11.3 0.33 0.00 0.33 90 998.0